Mekoryuk Airport Mekoryuk US
ICAO: PAMY
IATA:
Category: Medium
Scheduled Services:

Elevation: 48 ft
TransAlt. 18000 ft.

Airport Communications:
AWOS 3:123.9
ANCHORAGE CNTR:124.5
CTAF:122.9
KENAI RDO:122
TWEB:32.3

PAMY Zoom In..

If you have problems with the map follow the link
https://www.worldairports.se/pages/airport.php?
ICAO=PAMY

Runways:

(A) RW 05 length 3070 ft width 75 ft
---- / hdg 54

(B) RW 23 length 3070 ft width 75 ft
---- / hdg 234

Location; PAMY
Day. 17 / Time. 21.56 Zulu
* Altimeter: 29.78
* Temperature: -16° c. -3.2°f.
* Wind from: 140° Speed 04 kn.
Dewpoint: -19° c.
Visibility: 10 Statute Miles.
Clouds: Clear (automated report).

PAMY 172156Z AUTO 14004KT 10SM CLR M16/M19 A2978 RMK AO2 SLP088 T11611189 FZRANO


Wind From 140°
Speed 04 kn.

 
 
jpsmedia worldairports.se 2020   terms of use